createdAt,value
2022-08-03T00:01:40.414Z,7.50
2022-08-03T00:04:08.506Z,7.15
2022-08-03T00:06:37.240Z,5.80
2022-08-03T00:09:05.803Z,7.40
2022-08-03T00:11:33.805Z,5.28
2022-08-03T00:14:01.424Z,4.95
2022-08-03T00:16:28.856Z,5.80
2022-08-03T00:18:56.214Z,6.82
2022-08-03T00:21:23.803Z,8.45
2022-08-03T00:23:52.853Z,7.68
2022-08-03T00:26:20.741Z,6.18
2022-08-03T00:28:48.833Z,9.10
2022-08-03T00:31:16.605Z,6.38
2022-08-03T00:33:59.322Z,7.50
2022-08-03T00:36:30.670Z,8.32
2022-08-03T00:38:58.189Z,7.32
2022-08-03T00:41:25.538Z,9.38
2022-08-03T00:44:02.877Z,6.43
2022-08-03T00:46:30.505Z,8.32
2022-08-03T00:48:57.899Z,7.57
2022-08-03T00:51:25.320Z,8.77
2022-08-03T00:53:52.912Z,8.05
2022-08-03T00:56:28.476Z,7.72
2022-08-03T00:58:56.936Z,4.78
2022-08-03T01:01:33.365Z,6.03
2022-08-03T01:04:20.912Z,5.93
2022-08-03T01:06:56.946Z,5.78
2022-08-03T01:09:42.886Z,6.30
2022-08-03T01:12:16.465Z,6.28
2022-08-03T01:14:50.397Z,5.90
2022-08-03T01:17:47.300Z,5.18
2022-08-03T01:20:15.084Z,5.30
2022-08-03T01:22:45.227Z,6.07
2022-08-03T01:25:28.242Z,5.10
2022-08-03T01:28:08.711Z,5.70
2022-08-03T01:30:41.042Z,5.60
2022-08-03T01:33:12.749Z,6.38
2022-08-03T01:35:51.153Z,6.20
2022-08-03T01:38:22.361Z,6.25
2022-08-03T01:40:59.552Z,6.57
2022-08-03T01:44:26.405Z,6.15
2022-08-03T01:46:18.827Z,6.32
2022-08-03T01:48:47.350Z,6.40
2022-08-03T01:51:16.652Z,6.63
2022-08-03T01:53:44.533Z,8.32
2022-08-03T01:56:12.758Z,8.63
2022-08-03T01:58:40.758Z,6.70
2022-08-03T02:01:09.076Z,5.57
2022-08-03T02:04:00.119Z,8.52
2022-08-03T02:09:26.398Z,7.93
2022-08-03T02:12:13.749Z,6.70
2022-08-03T02:17:38.699Z,6.90
2022-08-03T02:20:08.675Z,8.65
2022-08-03T02:22:39.302Z,7.60
2022-08-03T02:25:07.970Z,7.30
2022-08-03T02:27:39.377Z,9.00
2022-08-03T02:30:15.176Z,6.75
2022-08-03T02:32:44.447Z,6.97
2022-08-03T02:35:21.346Z,8.38
2022-08-03T02:37:53.039Z,7.13
2022-08-03T02:40:21.493Z,9.50
2022-08-03T02:42:51.423Z,6.68
2022-08-03T02:45:20.316Z,9.95
2022-08-03T02:47:53.846Z,7.47
2022-08-03T02:50:23.493Z,8.52
2022-08-03T02:52:51.725Z,9.88
2022-08-03T02:59:01.756Z,7.93
2022-08-03T03:01:30.589Z,7.55
2022-08-03T03:03:58.290Z,10.05
2022-08-03T03:06:25.867Z,10.32
2022-08-03T03:08:59.747Z,8.43
2022-08-03T03:11:28.131Z,10.00
2022-08-03T03:13:56.428Z,10.70
2022-08-03T03:16:25.447Z,8.15
2022-08-03T03:18:53.613Z,8.10
2022-08-03T03:21:21.362Z,8.18
2022-08-03T03:23:49.235Z,8.77
2022-08-03T03:26:16.980Z,8.20
2022-08-03T03:28:44.696Z,10.63
2022-08-03T03:31:12.326Z,11.07
2022-08-03T03:33:39.698Z,11.00
2022-08-03T03:36:07.435Z,9.55
2022-08-03T03:38:35.061Z,7.93
2022-08-03T03:41:02.353Z,9.52
2022-08-03T03:43:29.727Z,8.98
2022-08-03T03:45:58.510Z,14.35
2022-08-03T03:48:26.027Z,9.25
2022-08-03T03:50:53.599Z,12.88
2022-08-03T03:53:34.697Z,9.70
2022-08-03T03:56:03.101Z,8.88
2022-08-03T03:58:31.974Z,9.40
2022-08-03T04:00:59.695Z,13.00
2022-08-03T04:03:27.218Z,9.35
2022-08-03T04:05:54.817Z,9.82
2022-08-03T04:08:22.120Z,8.88
2022-08-03T04:11:08.012Z,10.48
2022-08-03T04:13:37.909Z,14.93
2022-08-03T04:16:06.011Z,12.65
2022-08-03T04:18:34.332Z,11.70
2022-08-03T04:21:03.694Z,11.10
2022-08-03T04:23:32.462Z,13.52
2022-08-03T04:26:15.027Z,14.77
2022-08-03T04:28:44.691Z,11.00
2022-08-03T04:31:13.351Z,11.95
2022-08-03T04:33:41.226Z,12.02
2022-08-03T04:36:19.798Z,12.80
2022-08-03T04:39:07.162Z,9.48
2022-08-03T04:42:07.113Z,11.30
2022-08-03T04:44:28.117Z,10.88
2022-08-03T04:46:56.801Z,13.23
2022-08-03T04:49:24.898Z,10.80
2022-08-03T04:51:52.633Z,10.95
2022-08-03T04:54:20.195Z,14.27
2022-08-03T04:56:47.554Z,17.45
2022-08-03T04:59:14.912Z,12.30
2022-08-03T05:01:56.726Z,10.15
2022-08-03T05:04:43.124Z,10.77
2022-08-03T05:07:11.616Z,12.98
2022-08-03T05:09:50.559Z,11.00
2022-08-03T05:12:20.517Z,12.57
2022-08-03T05:14:47.779Z,10.50
2022-08-03T05:17:15.125Z,9.27
2022-08-03T05:19:42.674Z,9.65
2022-08-03T05:22:10.097Z,9.32
2022-08-03T05:24:38.445Z,10.88
2022-08-03T05:27:06.004Z,9.70
2022-08-03T05:29:33.328Z,9.40
2022-08-03T05:32:04.885Z,8.85
2022-08-03T05:34:35.337Z,8.13
2022-08-03T05:37:02.561Z,10.13
2022-08-03T05:39:29.835Z,7.88
2022-08-03T05:41:57.364Z,8.07
2022-08-03T05:44:24.650Z,10.73
2022-08-03T05:46:52.298Z,6.60
2022-08-03T05:49:20.362Z,6.35
2022-08-03T05:51:47.940Z,6.80
2022-08-03T05:54:56.013Z,6.25
2022-08-03T05:57:14.769Z,7.13
2022-08-03T05:59:53.902Z,6.95
2022-08-03T06:02:28.526Z,6.38
2022-08-03T06:04:56.078Z,8.52
2022-08-03T06:07:23.433Z,6.70
2022-08-03T06:10:35.078Z,6.50
2022-08-03T06:12:38.414Z,5.13
2022-08-03T06:15:12.559Z,5.20
2022-08-03T06:17:47.331Z,5.53
2022-08-03T06:20:28.953Z,7.60
2022-08-03T06:23:00.424Z,6.90
2022-08-03T06:25:28.597Z,4.93
2022-08-03T06:27:56.079Z,5.05
2022-08-03T06:30:23.693Z,6.05
2022-08-03T06:32:51.776Z,8.70
2022-08-03T06:35:19.743Z,6.18
2022-08-03T06:37:48.969Z,4.38
2022-08-03T06:40:21.768Z,4.10
2022-08-03T06:42:52.062Z,3.63
2022-08-03T06:45:40.091Z,4.80
2022-08-03T06:48:11.121Z,3.28
2022-08-03T06:50:39.996Z,4.38
2022-08-03T06:53:07.723Z,6.60
2022-08-03T06:55:35.243Z,5.00
2022-08-03T06:58:09.768Z,5.53
2022-08-03T07:00:37.243Z,3.17
2022-08-03T07:03:04.496Z,3.67
2022-08-03T07:05:37.678Z,5.28
2022-08-03T07:08:05.429Z,3.55
2022-08-03T07:10:32.808Z,3.67
2022-08-03T07:13:00.159Z,3.13
2022-08-03T07:15:54.537Z,3.35
2022-08-03T07:18:16.881Z,3.70
2022-08-03T07:20:45.398Z,3.80
2022-08-03T07:23:19.415Z,5.25
2022-08-03T07:25:47.044Z,3.78
2022-08-03T07:28:14.359Z,8.88
2022-08-03T07:30:44.660Z,2.75
2022-08-03T07:33:13.296Z,2.42
2022-08-03T07:35:40.742Z,3.10
2022-08-03T07:38:08.039Z,2.65
2022-08-03T07:40:35.702Z,4.10
2022-08-03T07:43:03.101Z,2.40
2022-08-03T07:45:33.270Z,3.83
2022-08-03T07:48:01.017Z,3.00
2022-08-03T07:50:28.359Z,3.33
2022-08-03T07:52:55.667Z,4.32
2022-08-03T07:55:24.207Z,3.17
2022-08-03T07:58:07.835Z,3.88
2022-08-03T08:00:35.994Z,4.68
2022-08-03T08:03:03.319Z,3.63
2022-08-03T08:05:31.141Z,2.53
2022-08-03T08:07:58.673Z,2.30
2022-08-03T08:10:25.965Z,2.25
2022-08-03T08:12:56.474Z,4.90
2022-08-03T08:15:36.118Z,4.07
2022-08-03T08:18:10.136Z,2.42
2022-08-03T08:20:41.804Z,2.38
2022-08-03T08:23:41.604Z,4.00
2022-08-03T08:26:06.661Z,2.00
2022-08-03T08:28:34.018Z,1.98
2022-08-03T08:31:02.173Z,10.52
2022-08-03T08:33:42.481Z,4.25
2022-08-03T08:36:16.963Z,4.53
2022-08-03T08:38:44.300Z,3.13
2022-08-03T08:41:12.029Z,3.22
2022-08-03T08:43:39.927Z,5.95
2022-08-03T08:46:11.485Z,3.10
2022-08-03T08:48:41.341Z,2.20
2022-08-03T08:51:09.868Z,2.93
2022-08-03T08:53:37.848Z,2.28
2022-08-03T08:56:05.380Z,2.58
2022-08-03T08:58:37.453Z,2.58
2022-08-03T09:01:06.282Z,2.05
2022-08-03T09:03:34.258Z,2.75
2022-08-03T09:06:02.202Z,3.38
2022-08-03T09:08:30.567Z,1.98
2022-08-03T09:10:58.361Z,2.72
2022-08-03T09:13:25.771Z,2.97
2022-08-03T09:16:17.246Z,1.90
2022-08-03T09:18:48.806Z,5.40
2022-08-03T09:21:35.087Z,3.67
2022-08-03T09:24:06.208Z,2.30
2022-08-03T09:26:35.646Z,2.65
2022-08-03T09:29:13.218Z,1.88
2022-08-03T09:31:43.616Z,3.15
2022-08-03T09:34:12.826Z,5.18
2022-08-03T09:36:44.414Z,2.30
2022-08-03T09:39:15.930Z,2.20
2022-08-03T09:42:07.986Z,2.10
2022-08-03T09:44:39.574Z,3.05
2022-08-03T09:47:07.178Z,2.03
2022-08-03T09:49:34.593Z,2.92
2022-08-03T09:52:33.608Z,3.25
2022-08-03T09:54:53.052Z,2.15
2022-08-03T09:57:25.108Z,2.08
2022-08-03T10:00:04.584Z,1.92
2022-08-03T10:02:35.286Z,2.50
2022-08-03T10:05:03.416Z,2.13
2022-08-03T10:07:30.869Z,1.80
2022-08-03T10:10:31.691Z,3.08
2022-08-03T10:12:49.340Z,3.67
2022-08-03T10:16:21.865Z,2.17
2022-08-03T10:18:04.568Z,1.98
2022-08-03T10:20:32.887Z,2.53
2022-08-03T10:23:00.323Z,1.85
2022-08-03T10:25:33.376Z,2.13
2022-08-03T10:28:02.268Z,4.95
2022-08-03T10:30:31.395Z,3.67
2022-08-03T10:33:51.279Z,2.35
2022-08-03T10:36:09.297Z,2.08
2022-08-03T10:38:38.465Z,5.30
2022-08-03T10:41:06.510Z,2.30
2022-08-03T10:43:36.287Z,2.70
2022-08-03T10:46:05.196Z,2.03
2022-08-03T10:48:33.131Z,1.80
2022-08-03T10:51:08.000Z,1.80
2022-08-03T10:53:36.473Z,1.80
2022-08-03T10:56:35.668Z,1.70
2022-08-03T10:59:14.734Z,1.98
2022-08-03T11:01:59.867Z,2.15
2022-08-03T11:04:29.128Z,3.38
2022-08-03T11:07:23.176Z,4.30
2022-08-03T11:09:55.004Z,1.83
2022-08-03T11:12:30.272Z,2.20
2022-08-03T11:15:08.105Z,2.00
2022-08-03T11:17:46.397Z,2.10
2022-08-03T11:20:41.882Z,1.80
2022-08-03T11:23:09.903Z,2.08
2022-08-03T11:25:55.937Z,2.05
2022-08-03T11:28:27.307Z,2.60
2022-08-03T11:30:54.634Z,2.30
2022-08-03T11:33:31.280Z,3.00
2022-08-03T11:36:02.034Z,2.10
2022-08-03T11:38:29.853Z,3.03
2022-08-03T11:40:57.231Z,1.83
2022-08-03T11:43:31.806Z,2.38
2022-08-03T11:46:02.583Z,1.98
2022-08-03T11:48:37.101Z,2.75
2022-08-03T11:51:06.239Z,3.72
2022-08-03T11:53:34.000Z,1.65
2022-08-03T11:56:12.961Z,1.63
2022-08-03T12:01:27.712Z,1.88
2022-08-03T12:03:55.338Z,2.25
2022-08-03T12:06:22.636Z,1.80
2022-08-03T12:08:49.971Z,1.52
2022-08-03T12:11:17.697Z,1.63
2022-08-03T12:14:35.601Z,2.05
2022-08-03T12:16:33.859Z,2.45
2022-08-03T12:19:05.827Z,1.92
2022-08-03T12:21:33.198Z,2.30
2022-08-03T12:24:01.804Z,1.65
2022-08-03T12:26:30.836Z,2.10
2022-08-03T12:29:08.013Z,1.90
2022-08-03T12:31:35.714Z,2.00
2022-08-03T12:34:04.257Z,2.00
2022-08-03T12:36:32.514Z,2.25
2022-08-03T12:39:07.067Z,5.75
2022-08-03T12:41:38.772Z,3.05
2022-08-03T12:44:09.638Z,2.08
2022-08-03T12:46:37.856Z,1.52
2022-08-03T12:49:12.769Z,2.78
2022-08-03T12:51:43.294Z,1.70
2022-08-03T12:54:16.834Z,4.10
2022-08-03T12:56:57.098Z,1.92
2022-08-03T12:59:35.413Z,1.80
2022-08-03T13:02:16.751Z,2.85
2022-08-03T13:04:46.068Z,5.60
2022-08-03T13:07:14.419Z,4.50
2022-08-03T13:09:42.038Z,1.50
2022-08-03T13:12:13.492Z,3.15
2022-08-03T13:14:41.921Z,2.95
2022-08-03T13:17:09.376Z,1.83
2022-08-03T13:19:37.317Z,1.77
2022-08-03T13:22:14.562Z,3.08
2022-08-03T13:24:42.199Z,1.80
2022-08-03T13:27:30.858Z,2.50
2022-08-03T13:29:57.305Z,1.65
2022-08-03T13:32:24.885Z,1.75
2022-08-03T13:34:52.262Z,1.83
2022-08-03T13:37:19.906Z,1.60
2022-08-03T13:39:58.109Z,2.60
2022-08-03T13:42:34.142Z,5.07
2022-08-03T13:45:02.081Z,1.92
2022-08-03T13:47:29.466Z,2.70
2022-08-03T13:50:00.895Z,2.45
2022-08-03T13:52:30.550Z,2.63
2022-08-03T13:54:57.973Z,2.58
2022-08-03T13:58:05.652Z,1.65
2022-08-03T14:00:13.165Z,2.65
2022-08-03T14:02:58.453Z,1.70
2022-08-03T14:05:32.087Z,2.33
2022-08-03T14:08:04.421Z,1.60
2022-08-03T14:10:33.527Z,2.45
2022-08-03T14:13:00.975Z,2.67
2022-08-03T14:15:28.286Z,1.80
2022-08-03T14:17:56.196Z,4.10
2022-08-03T14:20:37.912Z,1.80
2022-08-03T14:23:07.096Z,4.00
2022-08-03T14:25:49.851Z,2.38
2022-08-03T14:28:20.302Z,1.85
2022-08-03T14:30:47.612Z,1.67
2022-08-03T14:33:14.971Z,1.70
2022-08-03T14:35:42.593Z,2.20
2022-08-03T14:38:09.985Z,2.13
2022-08-03T14:40:37.361Z,2.67
2022-08-03T14:43:04.978Z,1.83
2022-08-03T14:45:32.453Z,2.15
2022-08-03T14:50:28.954Z,1.95
2022-08-03T14:50:51.401Z,1.80
2022-08-03T14:53:19.384Z,1.98
2022-08-03T14:55:49.652Z,1.88
2022-08-03T14:58:22.408Z,1.70
2022-08-03T15:00:51.044Z,2.08
2022-08-03T15:03:22.306Z,3.80
2022-08-03T15:05:53.177Z,2.75
2022-08-03T15:08:21.047Z,1.85
2022-08-03T15:10:49.284Z,2.70
2022-08-03T15:13:17.271Z,2.15
2022-08-03T15:15:44.640Z,3.08
2022-08-03T15:18:12.029Z,1.98
2022-08-03T15:20:45.056Z,2.08
2022-08-03T15:23:14.002Z,2.03
2022-08-03T15:26:29.610Z,1.65
2022-08-03T15:28:29.486Z,1.30
2022-08-03T15:30:57.168Z,3.05
2022-08-03T15:33:24.595Z,1.80
2022-08-03T15:35:51.931Z,3.67
2022-08-03T15:38:19.444Z,1.70
2022-08-03T15:40:46.739Z,2.53
2022-08-03T15:43:14.232Z,4.15
2022-08-03T15:45:42.034Z,1.70
2022-08-03T15:48:09.523Z,1.80
2022-08-03T15:50:36.931Z,2.17
2022-08-03T15:53:04.652Z,1.83
2022-08-03T15:55:32.034Z,2.00
2022-08-03T15:59:04.506Z,2.92
2022-08-03T16:00:46.930Z,2.78
2022-08-03T16:03:14.311Z,3.30
2022-08-03T16:05:41.756Z,2.67
2022-08-03T16:08:13.648Z,1.80
2022-08-03T16:10:41.351Z,2.38
2022-08-03T16:13:08.713Z,1.88
2022-08-03T16:15:38.374Z,2.00
2022-08-03T16:18:06.593Z,2.28
2022-08-03T16:20:35.331Z,3.03
2022-08-03T16:23:10.834Z,4.00
2022-08-03T16:25:42.358Z,1.95
2022-08-03T16:28:14.187Z,2.70
2022-08-03T16:30:42.792Z,3.30
2022-08-03T16:33:11.178Z,4.07
2022-08-03T16:35:38.641Z,4.43
2022-08-03T16:38:09.721Z,1.92
2022-08-03T16:40:38.095Z,2.17
2022-08-03T16:43:18.316Z,2.95
2022-08-03T16:45:47.376Z,3.92
2022-08-03T16:48:15.072Z,2.25
2022-08-03T16:50:42.880Z,3.17
2022-08-03T16:53:16.417Z,1.70
2022-08-03T16:55:54.267Z,2.08
2022-08-03T16:58:24.438Z,5.63
2022-08-03T17:01:06.398Z,3.70
2022-08-03T17:04:02.046Z,1.88
2022-08-03T17:06:35.034Z,2.72
2022-08-03T17:09:08.795Z,1.88
2022-08-03T17:11:47.078Z,3.22
2022-08-03T17:14:21.758Z,2.53
2022-08-03T17:16:53.022Z,2.20
2022-08-03T17:19:23.788Z,1.80
2022-08-03T17:22:04.259Z,4.68
2022-08-03T17:24:33.976Z,1.88
2022-08-03T17:27:08.553Z,3.05
2022-08-03T17:29:38.902Z,2.78
2022-08-03T17:32:17.696Z,3.35
2022-08-03T17:34:46.868Z,1.50
2022-08-03T17:37:27.021Z,3.05
2022-08-03T17:40:03.731Z,2.15
2022-08-03T17:42:33.025Z,2.25
2022-08-03T17:45:03.996Z,2.65
2022-08-03T17:47:42.073Z,3.25
2022-08-03T17:50:24.067Z,3.67
2022-08-03T17:53:07.009Z,6.80
2022-08-03T17:55:55.778Z,8.82
2022-08-03T17:58:35.429Z,6.63
2022-08-03T18:01:03.262Z,3.10
2022-08-03T18:03:57.950Z,7.43
2022-08-03T18:06:29.031Z,5.18
2022-08-03T18:08:57.584Z,3.88
2022-08-03T18:11:37.121Z,3.10
2022-08-03T18:14:16.523Z,2.65
2022-08-03T18:16:45.515Z,5.05
2022-08-03T18:19:14.340Z,3.70
2022-08-03T18:22:03.614Z,6.50
2022-08-03T18:24:30.295Z,3.05
2022-08-03T18:26:58.945Z,2.95
2022-08-03T18:29:27.265Z,5.03
2022-08-03T18:32:02.613Z,4.95
2022-08-03T18:34:34.066Z,3.35
2022-08-03T18:37:07.234Z,3.75
2022-08-03T18:39:49.725Z,3.55
2022-08-03T18:42:19.568Z,3.85
2022-08-03T18:44:54.410Z,3.67
2022-08-03T18:47:50.969Z,4.18
2022-08-03T18:50:26.070Z,3.78
2022-08-03T18:53:14.541Z,5.25
2022-08-03T18:55:59.333Z,4.15
2022-08-03T18:58:34.735Z,7.05
2022-08-03T19:02:00.852Z,5.90
2022-08-03T19:04:31.237Z,7.75
2022-08-03T19:07:09.370Z,5.85
2022-08-03T19:09:48.883Z,5.25
2022-08-03T19:12:31.188Z,3.60
2022-08-03T19:17:55.496Z,5.35
2022-08-03T19:20:30.003Z,4.85
2022-08-03T19:23:16.737Z,4.70
2022-08-03T19:25:51.139Z,5.72
2022-08-03T19:28:21.059Z,7.22
2022-08-03T19:31:00.060Z,4.85
2022-08-03T19:33:31.077Z,5.53
2022-08-03T19:36:19.031Z,4.65
2022-08-03T19:38:54.645Z,5.40
2022-08-03T19:41:24.487Z,7.10
2022-08-03T19:43:59.447Z,5.60
2022-08-03T19:46:30.444Z,6.35
2022-08-03T19:48:58.545Z,6.40
2022-08-03T19:52:03.014Z,4.35
2022-08-03T19:54:29.339Z,4.03
2022-08-03T19:56:57.991Z,5.90
2022-08-03T19:59:26.366Z,4.57
2022-08-03T20:01:53.966Z,6.85
2022-08-03T20:04:22.155Z,7.68
2022-08-03T20:06:49.979Z,5.45
2022-08-03T20:09:18.009Z,5.55
2022-08-03T20:11:46.727Z,5.55
2022-08-03T20:14:20.856Z,6.57
2022-08-03T20:16:54.280Z,5.43
2022-08-03T20:19:22.157Z,4.68
2022-08-03T20:21:50.835Z,10.63
2022-08-03T20:24:25.074Z,5.85
2022-08-03T20:26:54.173Z,8.48
2022-08-03T20:30:05.362Z,4.22
2022-08-03T20:32:13.090Z,5.65
2022-08-03T20:34:40.562Z,5.68
2022-08-03T20:39:56.135Z,5.60
2022-08-03T20:42:23.867Z,5.82
2022-08-03T20:45:05.622Z,7.85
2022-08-03T20:47:35.779Z,4.53
2022-08-03T20:50:03.898Z,4.57
2022-08-03T20:52:31.571Z,5.72
2022-08-03T20:54:59.250Z,6.68
2022-08-03T20:57:33.169Z,7.35
2022-08-03T21:00:01.387Z,6.13
2022-08-03T21:02:30.732Z,6.97
2022-08-03T21:05:03.238Z,5.45
2022-08-03T21:08:06.169Z,6.25
2022-08-03T21:10:38.447Z,11.00
2022-08-03T21:13:08.339Z,6.80
2022-08-03T21:13:13.846Z,5.55
2022-08-03T21:13:17.137Z,4.65
2022-08-03T21:16:12.868Z,6.50
2022-08-03T21:18:36.750Z,6.40
2022-08-03T21:21:05.121Z,9.18
2022-08-03T21:23:40.497Z,6.05
2022-08-03T21:26:17.783Z,7.10
2022-08-03T21:28:45.947Z,8.60
2022-08-03T21:31:13.677Z,6.20
2022-08-03T21:33:41.694Z,6.78
2022-08-03T21:36:15.268Z,5.47
2022-08-03T21:38:42.828Z,6.95
2022-08-03T21:41:10.114Z,7.18
2022-08-03T21:43:37.482Z,5.68
2022-08-03T21:46:06.529Z,6.93
2022-08-03T21:48:39.152Z,5.10
2022-08-03T21:51:07.487Z,7.10
2022-08-03T21:54:02.558Z,5.82
2022-08-03T21:56:23.328Z,6.13
2022-08-03T21:58:53.357Z,5.97
2022-08-03T22:01:23.701Z,8.90
2022-08-03T22:03:53.850Z,6.45
2022-08-03T22:06:22.161Z,5.50
2022-08-03T22:08:53.097Z,6.73
2022-08-03T22:11:20.712Z,7.80
2022-08-03T22:13:48.257Z,8.73
2022-08-03T22:16:16.225Z,7.05
2022-08-03T22:18:44.791Z,5.53
2022-08-03T22:21:14.395Z,6.45
2022-08-03T22:23:43.197Z,4.65
2022-08-03T22:26:13.890Z,5.53
2022-08-03T22:28:41.891Z,5.47
2022-08-03T22:31:57.220Z,6.75
2022-08-03T22:33:56.962Z,6.93
2022-08-03T22:36:25.261Z,5.18
2022-08-03T22:38:52.750Z,5.82
2022-08-03T22:41:20.359Z,6.78
2022-08-03T22:43:47.875Z,6.57
2022-08-03T22:46:18.748Z,6.43
2022-08-03T22:48:46.712Z,6.40
2022-08-03T22:51:15.257Z,7.18
2022-08-03T22:53:44.690Z,7.25
2022-08-03T22:56:12.612Z,6.63
2022-08-03T22:58:40.215Z,5.88
2022-08-03T23:01:09.419Z,6.30
2022-08-03T23:03:59.878Z,5.30
2022-08-03T23:06:29.952Z,7.43
2022-08-03T23:08:57.517Z,6.80
2022-08-03T23:11:25.508Z,8.23
2022-08-03T23:13:53.798Z,8.88
2022-08-03T23:16:28.817Z,6.43
2022-08-03T23:18:58.667Z,5.25
2022-08-03T23:21:59.962Z,7.18
2022-08-03T23:24:25.995Z,8.40
2022-08-03T23:26:57.422Z,6.72
2022-08-03T23:29:26.098Z,6.22
2022-08-03T23:31:53.736Z,5.68
2022-08-03T23:34:21.361Z,7.40
2022-08-03T23:36:49.400Z,6.80
2022-08-03T23:39:18.971Z,6.72
2022-08-03T23:41:48.320Z,6.50
2022-08-03T23:44:16.711Z,6.65
2022-08-03T23:46:44.402Z,6.28
2022-08-03T23:49:11.757Z,7.82
2022-08-03T23:51:46.753Z,6.53
2022-08-03T23:54:21.397Z,8.57
2022-08-03T23:56:54.705Z,7.85
2022-08-03T23:59:32.180Z,6.97
